Time;durP1;ratioP1;P1;durP2;ratioP2;P2;SDS_P1;SDS_P2;PMS_P1;PMS_P2;Temp;Humidity;BMP_temperature;BMP_pressure;BME280_temperature;BME280_humidity;BME280_pressure;Samples;Min_cycle;Max_cycle;Signal;HPM_P1;HPM_P2
2022/12/16 00:00:25;;;;;;;26.60;15.37;;;3.00;54.20;;;;;;4905973;29;20466;-85
2022/12/16 00:02:52;;;;;;;29.70;14.40;;;3.00;54.20;;;;;;4901297;29;20475;-86
2022/12/16 00:05:19;;;;;;;25.63;15.50;;;3.10;54.00;;;;;;4930337;29;20459;-86
2022/12/16 00:07:47;;;;;;;27.47;14.93;;;3.20;53.80;;;;;;4882749;29;20523;-83
2022/12/16 00:10:14;;;;;;;30.20;13.73;;;3.20;53.80;;;;;;4894161;29;20466;-86
2022/12/16 00:12:42;;;;;;;28.20;13.47;;;3.20;54.10;;;;;;4905321;29;20862;-87
2022/12/16 00:15:09;;;;;;;31.70;13.80;;;3.20;54.00;;;;;;4908519;29;20984;-86
2022/12/16 00:17:38;;;;;;;31.60;14.70;;;3.30;53.70;;;;;;4903599;29;20459;-85
2022/12/16 00:20:06;;;;;;;32.33;15.60;;;3.30;53.40;;;;;;4912000;29;20458;-85
2022/12/16 00:22:33;;;;;;;28.30;15.63;;;3.30;53.20;;;;;;4923343;29;21028;-86
2022/12/16 00:25:00;;;;;;;28.33;12.87;;;3.30;53.30;;;;;;4893770;29;20471;-85
2022/12/16 00:27:27;;;;;;;29.77;14.47;;;3.30;53.20;;;;;;4896388;29;20459;-86
2022/12/16 00:29:55;;;;;;;27.63;12.00;;;3.20;53.10;;;;;;4887951;29;21051;-86
2022/12/16 00:32:22;;;;;;;22.47;10.20;;;3.20;53.00;;;;;;4896260;29;20462;-84
2022/12/16 00:34:49;;;;;;;23.67;14.50;;;3.00;52.30;;;;;;4880593;29;20475;-85
2022/12/16 00:37:16;;;;;;;27.10;13.10;;;2.80;53.90;;;;;;4936764;28;20459;-86
2022/12/16 00:39:43;;;;;;;30.67;14.53;;;2.90;54.10;;;;;;4909266;29;20452;-84
2022/12/16 00:42:10;;;;;;;30.10;15.00;;;3.00;54.40;;;;;;4874916;29;20493;-86
2022/12/16 00:44:37;;;;;;;33.43;15.37;;;3.10;54.10;;;;;;4894186;29;20483;-86
2022/12/16 00:47:05;;;;;;;27.03;14.23;;;3.10;53.80;;;;;;4906833;29;20463;-86
2022/12/16 00:49:32;;;;;;;22.67;13.93;;;3.10;54.00;;;;;;4935610;29;20470;-86
2022/12/16 00:51:59;;;;;;;21.77;13.10;;;3.10;54.10;;;;;;4911955;29;20846;-87
2022/12/16 00:54:25;;;;;;;28.13;14.10;;;3.10;54.00;;;;;;4893783;29;20490;-84
2022/12/16 00:56:52;;;;;;;24.90;14.10;;;3.10;54.10;;;;;;4917380;29;20973;-85
2022/12/16 00:59:19;;;;;;;36.07;14.13;;;3.20;54.10;;;;;;4910543;29;20826;-86
2022/12/16 01:01:46;;;;;;;29.80;14.10;;;3.20;53.70;;;;;;4920445;29;20474;-84
2022/12/16 01:04:14;;;;;;;27.80;13.73;;;3.00;54.10;;;;;;4901840;29;20471;-87
2022/12/16 01:06:41;;;;;;;24.10;13.60;;;3.10;54.20;;;;;;4904881;29;20558;-86
2022/12/16 01:09:08;;;;;;;24.23;12.50;;;2.90;54.20;;;;;;4916582;29;20458;-86
2022/12/16 01:11:36;;;;;;;24.03;13.20;;;2.90;54.70;;;;;;4912928;29;21012;-86
2022/12/16 01:14:03;;;;;;;21.23;12.33;;;3.00;54.60;;;;;;4921041;29;20490;-86
2022/12/16 01:16:30;;;;;;;23.03;13.47;;;3.20;54.20;;;;;;4921463;29;20462;-86
2022/12/16 01:18:57;;;;;;;30.17;14.10;;;3.20;53.80;;;;;;4892501;29;21004;-86
2022/12/16 01:21:25;;;;;;;28.23;14.57;;;3.30;53.80;;;;;;4906007;29;20467;-85
2022/12/16 01:23:52;;;;;;;21.43;13.63;;;3.30;53.60;;;;;;4917527;29;20989;-86
2022/12/16 01:26:20;;;;;;;29.80;13.80;;;3.10;54.20;;;;;;4933410;29;20440;-86
2022/12/16 01:28:48;;;;;;;26.57;13.40;;;3.10;54.40;;;;;;4917616;29;20452;-84
2022/12/16 01:31:16;;;;;;;26.40;13.30;;;3.10;54.40;;;;;;4888802;29;20469;-86
2022/12/16 01:33:44;;;;;;;23.10;12.90;;;3.30;54.20;;;;;;4935737;29;20491;-84
2022/12/16 01:36:11;;;;;;;26.23;11.80;;;3.30;54.00;;;;;;4909953;29;20463;-86
2022/12/16 01:38:42;;;;;;;26.40;14.90;;;3.30;53.80;;;;;;4887336;29;21149;-86
2022/12/16 01:41:10;;;;;;;23.40;12.50;;;3.30;53.50;;;;;;4925927;29;20452;-86
2022/12/16 01:43:38;;;;;;;27.07;13.63;;;3.40;53.30;;;;;;4901190;29;20486;-85
2022/12/16 01:46:16;;;;;;;24.20;13.40;;;3.40;53.20;;;;;;4909745;29;20490;-85
2022/12/16 01:48:47;;;;;;;20.43;12.60;;;3.40;53.20;;;;;;4903031;29;20467;-86
2022/12/16 01:51:18;;;;;;;27.43;13.00;;;3.40;53.10;;;;;;4916552;29;20550;-86
2022/12/16 01:53:48;;;;;;;27.57;14.70;;;3.30;53.10;;;;;;4918689;29;20479;-83
2022/12/16 01:56:17;;;;;;;23.27;12.27;;;3.20;53.80;;;;;;4918846;29;20459;-87
2022/12/16 01:58:45;;;;;;;21.63;11.30;;;3.20;54.00;;;;;;4878548;29;20444;-86
2022/12/16 02:01:14;;;;;;;24.87;11.80;;;3.30;53.80;;;;;;4935386;29;20489;-85
2022/12/16 02:03:42;;;;;;;20.93;11.03;;;3.30;53.70;;;;;;4902078;29;20483;-87
2022/12/16 02:06:09;;;;;;;22.50;11.43;;;3.30;53.40;;;;;;4916435;29;20462;-84
2022/12/16 02:08:36;;;;;;;22.53;11.30;;;3.20;53.80;;;;;;4889398;29;20460;-84
2022/12/16 02:11:28;;;;;;;26.00;12.30;;;3.20;53.90;;;;;;4918686;29;20992;-85
2022/12/16 02:14:16;;;;;;;20.03;11.63;;;3.20;53.60;;;;;;4915084;29;21164;-86
2022/12/16 02:16:51;;;;;;;22.60;11.27;;;2.80;54.10;;;;;;4917994;29;20459;-85
2022/12/16 02:19:47;;;;;;;22.20;11.63;;;2.80;54.20;;;;;;4889826;29;20986;-86
2022/12/16 02:22:27;;;;;;;22.83;12.13;;;2.90;53.80;;;;;;4917845;29;20866;-85
2022/12/16 02:25:35;;;;;;;21.27;9.60;;;3.00;53.80;;;;;;4916939;29;20981;-87
2022/12/16 02:28:08;;;;;;;11.90;8.23;;;2.90;53.20;;;;;;4900335;29;20497;-86
2022/12/16 02:31:00;;;;;;;13.27;7.73;;;2.90;52.90;;;;;;4901642;29;20894;-86
2022/12/16 02:33:43;;;;;;;11.50;7.93;;;2.90;52.50;;;;;;4877518;29;20479;-84
2022/12/16 02:36:17;;;;;;;22.50;9.60;;;3.00;53.00;;;;;;4899288;29;20456;-85
2022/12/16 02:38:54;;;;;;;13.50;9.23;;;3.10;52.60;;;;;;4908686;29;20456;-85
2022/12/16 02:41:27;;;;;;;17.63;8.53;;;3.10;52.20;;;;;;4872422;29;20471;-82
2022/12/16 02:43:57;;;;;;;19.30;8.03;;;3.10;52.10;;;;;;4916607;29;21192;-86
2022/12/16 02:46:29;;;;;;;7.33;5.40;;;3.10;52.40;;;;;;4926594;29;20536;-84
2022/12/16 02:48:56;;;;;;;14.67;7.53;;;3.20;52.50;;;;;;4917507;29;20466;-85
2022/12/16 02:51:25;;;;;;;18.70;6.97;;;3.20;52.80;;;;;;4920805;29;20974;-86
2022/12/16 02:53:54;;;;;;;14.37;6.37;;;3.20;52.60;;;;;;4877714;29;20477;-85
2022/12/16 02:56:32;;;;;;;12.37;8.40;;;3.20;53.00;;;;;;4894121;29;20462;-84
2022/12/16 02:59:13;;;;;;;14.00;9.20;;;3.20;53.00;;;;;;4908829;29;20960;-86
2022/12/16 03:01:50;;;;;;;19.37;10.47;;;3.30;53.10;;;;;;4909099;29;20633;-85
2022/12/16 03:04:21;;;;;;;22.63;12.07;;;3.30;53.00;;;;;;4893742;29;20573;-85
2022/12/16 03:06:51;;;;;;;16.70;10.77;;;3.40;52.90;;;;;;4916899;29;20454;-84
2022/12/16 03:09:24;;;;;;;23.97;12.37;;;3.20;53.40;;;;;;4889015;29;20454;-86
2022/12/16 03:11:54;;;;;;;23.00;10.07;;;3.10;53.60;;;;;;4900586;29;20455;-86
2022/12/16 03:14:25;;;;;;;20.77;10.10;;;3.20;53.90;;;;;;4909181;29;20479;-86
2022/12/16 03:16:54;;;;;;;21.20;10.43;;;3.30;53.60;;;;;;4900250;29;20448;-86
2022/12/16 03:19:23;;;;;;;24.63;12.57;;;3.30;53.20;;;;;;4872590;29;20464;-86
2022/12/16 03:22:00;;;;;;;20.27;10.77;;;3.30;52.90;;;;;;4905159;29;20993;-87
2022/12/16 03:24:28;;;;;;;24.67;12.50;;;3.10;53.60;;;;;;4900239;29;20506;-86
2022/12/16 03:27:06;;;;;;;20.93;10.97;;;3.20;53.40;;;;;;4917709;29;20986;-86
2022/12/16 03:29:39;;;;;;;25.20;11.60;;;3.20;53.30;;;;;;4924264;29;20469;-87
2022/12/16 03:32:11;;;;;;;26.50;13.70;;;3.20;53.20;;;;;;4916925;29;20838;-86
2022/12/16 03:34:43;;;;;;;26.60;13.10;;;3.20;52.90;;;;;;4876633;29;20526;-86
2022/12/16 03:37:12;;;;;;;23.47;12.93;;;3.20;53.30;;;;;;4887774;29;20474;-86
2022/12/16 03:39:43;;;;;;;21.27;12.60;;;3.20;53.10;;;;;;4879309;29;20462;-86
2022/12/16 03:42:11;;;;;;;17.80;10.50;;;3.20;52.80;;;;;;4930014;29;20463;-86
2022/12/16 03:44:39;;;;;;;20.63;11.67;;;3.20;52.60;;;;;;4917367;29;20472;-86
2022/12/16 03:47:07;;;;;;;13.80;10.23;;;3.30;52.50;;;;;;4905712;29;20463;-86
2022/12/16 03:49:34;;;;;;;18.80;10.87;;;3.20;52.30;;;;;;4915569;29;20462;-86
2022/12/16 03:52:01;;;;;;;16.73;8.93;;;3.20;52.20;;;;;;4878662;29;20569;-87
2022/12/16 03:54:28;;;;;;;14.63;7.40;;;3.10;51.80;;;;;;4890995;29;21005;-86
2022/12/16 03:56:55;;;;;;;16.10;7.30;;;2.70;51.70;;;;;;4916142;29;20459;-88
2022/12/16 03:59:22;;;;;;;11.43;6.67;;;2.40;51.50;;;;;;4918780;29;20454;-86
2022/12/16 04:01:49;;;;;;;9.00;5.73;;;2.20;51.00;;;;;;4902686;29;20463;-85
2022/12/16 04:04:18;;;;;;;6.63;4.80;;;2.20;51.40;;;;;;4875238;29;20486;-85
2022/12/16 04:07:18;;;;;;;11.03;6.17;;;2.30;51.60;;;;;;4888131;29;21024;-86
2022/12/16 04:09:32;;;;;;;11.67;5.53;;;2.20;51.30;;;;;;4891302;29;20463;-87
2022/12/16 04:25:46;;;;;;;11.30;7.60;;;2.50;50.00;;;;;;4896650;29;20945;-86
2022/12/16 04:28:13;;;;;;;9.10;5.57;;;2.50;50.00;;;;;;4870627;29;20542;-87
2022/12/16 04:30:41;;;;;;;13.40;7.10;;;2.00;49.90;;;;;;4892396;29;20452;-87
